Time;durP1;ratioP1;P1;durP2;ratioP2;P2;SDS_P1;SDS_P2;PMS_P1;PMS_P2;Temp;Humidity;BMP_temperature;BMP_pressure;BME280_temperature;BME280_humidity;BME280_pressure;Samples;Min_cycle;Max_cycle;Signal;HPM_P1;HPM_P2
2023/09/20 00:01:02;;;;;;;4.15;1.73;;;;;;;;;;6184549;23;19979;-68
2023/09/20 00:03:28;;;;;;;5.20;2.00;;;;;;;;;;6184997;23;20089;-67
2023/09/20 00:05:54;;;;;;;3.00;1.67;;;;;;;;;;6184715;23;20072;-68
2023/09/20 00:08:21;;;;;;;5.63;1.60;;;;;;;;;;6184019;23;20068;-68
2023/09/20 00:10:47;;;;;;;5.80;1.77;;;;;;;;;;6184570;23;20080;-68
2023/09/20 00:13:14;;;;;;;3.17;1.70;;;;;;;;;;6184530;23;20064;-68
2023/09/20 00:15:43;;;;;;;3.97;1.60;;;;;;;;;;6184679;23;20512;-67
2023/09/20 00:18:11;;;;;;;3.50;2.13;;;;;;;;;;6184484;23;20496;-67
2023/09/20 00:20:39;;;;;;;3.92;2.05;;;;;;;;;;6184562;23;20072;-67
2023/09/20 00:23:06;;;;;;;2.97;1.60;;;;;;;;;;6184134;23;20072;-68
2023/09/20 00:25:32;;;;;;;5.88;1.80;;;;;;;;;;6184338;23;20101;-67
2023/09/20 00:27:58;;;;;;;7.03;1.77;;;;;;;;;;6184266;23;20089;-68
2023/09/20 00:30:25;;;;;;;7.28;1.50;;;;;;;;;;6184432;23;20328;-67
2023/09/20 00:32:51;;;;;;;2.38;1.52;;;;;;;;;;6184566;23;20076;-67
2023/09/20 00:35:18;;;;;;;6.40;2.20;;;;;;;;;;6184423;23;20080;-68
2023/09/20 00:37:46;;;;;;;5.47;1.90;;;;;;;;;;6184055;23;20076;-68
2023/09/20 00:40:15;;;;;;;4.05;1.80;;;;;;;;;;6184525;23;20072;-68
2023/09/20 00:42:43;;;;;;;6.03;2.10;;;;;;;;;;6184596;23;20079;-67
2023/09/20 00:45:09;;;;;;;6.55;1.80;;;;;;;;;;6158200;23;20086;-68
2023/09/20 00:47:40;;;;;;;4.57;1.83;;;;;;;;;;6158119;23;20100;-68
2023/09/20 00:50:13;;;;;;;3.33;1.55;;;;;;;;;;6184380;23;20076;-67
2023/09/20 00:52:42;;;;;;;6.47;1.73;;;;;;;;;;6183995;23;20081;-67
2023/09/20 00:55:11;;;;;;;5.45;1.83;;;;;;;;;;6184291;23;20068;-67
2023/09/20 00:57:38;;;;;;;5.20;2.03;;;;;;;;;;6184490;23;20081;-68
2023/09/20 01:00:20;;;;;;;7.95;1.50;;;;;;;;;;6184305;23;20080;-67
2023/09/20 01:02:46;;;;;;;5.75;1.90;;;;;;;;;;6184568;23;20076;-67
2023/09/20 01:05:14;;;;;;;5.13;1.83;;;;;;;;;;6184225;23;20531;-67
2023/09/20 01:07:42;;;;;;;3.42;1.80;;;;;;;;;;6184006;23;20092;-67
2023/09/20 01:10:09;;;;;;;3.55;1.85;;;;;;;;;;6184291;23;20171;-67
2023/09/20 01:12:36;;;;;;;5.22;2.00;;;;;;;;;;6184589;23;20080;-68
2023/09/20 01:15:03;;;;;;;3.85;1.90;;;;;;;;;;6184264;23;20068;-67
2023/09/20 01:17:30;;;;;;;7.28;2.20;;;;;;;;;;6184225;23;20080;-68
2023/09/20 01:19:56;;;;;;;5.22;1.98;;;;;;;;;;6185487;23;20108;-67
2023/09/20 01:22:22;;;;;;;2.80;1.73;;;;;;;;;;6185499;23;20084;-68
2023/09/20 01:24:48;;;;;;;4.47;2.10;;;;;;;;;;6185903;23;20101;-67
2023/09/20 01:27:15;;;;;;;4.50;1.35;;;;;;;;;;6185974;23;20088;-68
2023/09/20 01:29:41;;;;;;;4.20;1.90;;;;;;;;;;6185823;23;20405;-67
2023/09/20 01:32:07;;;;;;;5.18;2.00;;;;;;;;;;6186179;23;20084;-67
2023/09/20 01:34:34;;;;;;;5.93;2.08;;;;;;;;;;6185942;23;20076;-68
2023/09/20 01:37:03;;;;;;;3.88;1.95;;;;;;;;;;6185477;23;20108;-67
2023/09/20 01:39:30;;;;;;;5.85;1.58;;;;;;;;;;6185952;23;20072;-67
2023/09/20 01:41:57;;;;;;;4.57;2.08;;;;;;;;;;6185779;23;20076;-68
2023/09/20 01:44:23;;;;;;;7.32;2.28;;;;;;;;;;6185913;23;20073;-67
2023/09/20 01:46:49;;;;;;;4.35;1.90;;;;;;;;;;6185653;23;20084;-67
2023/09/20 01:49:17;;;;;;;5.13;1.70;;;;;;;;;;6185833;23;20076;-68
2023/09/20 01:51:43;;;;;;;3.88;1.88;;;;;;;;;;6185719;23;20092;-67
2023/09/20 01:54:10;;;;;;;5.65;1.65;;;;;;;;;;6185571;23;20077;-67
2023/09/20 01:56:37;;;;;;;6.88;2.13;;;;;;;;;;6186003;23;20084;-67
2023/09/20 01:59:05;;;;;;;4.32;1.60;;;;;;;;;;6185745;23;20383;-67
2023/09/20 02:01:32;;;;;;;5.43;1.95;;;;;;;;;;6185659;23;20131;-68
2023/09/20 02:03:59;;;;;;;4.70;1.98;;;;;;;;;;6185371;23;20064;-67
2023/09/20 02:06:26;;;;;;;4.85;2.08;;;;;;;;;;6185636;23;20462;-68
2023/09/20 02:08:53;;;;;;;4.15;1.98;;;;;;;;;;6185615;23;20088;-67
2023/09/20 02:11:20;;;;;;;3.95;1.92;;;;;;;;;;6159312;23;20096;-67
2023/09/20 02:13:47;;;;;;;7.00;1.88;;;;;;;;;;6185873;23;20084;-68
2023/09/20 02:16:14;;;;;;;5.07;2.13;;;;;;;;;;6185542;23;20076;-67
2023/09/20 02:18:40;;;;;;;3.83;1.90;;;;;;;;;;6185476;23;20068;-67
2023/09/20 02:21:06;;;;;;;3.75;1.77;;;;;;;;;;6185614;23;20076;-67
2023/09/20 02:23:33;;;;;;;3.28;1.60;;;;;;;;;;6185301;23;20060;-67
2023/09/20 02:26:00;;;;;;;5.35;2.05;;;;;;;;;;6185316;23;20507;-67
2023/09/20 02:28:27;;;;;;;5.53;1.85;;;;;;;;;;6185390;23;20084;-68
2023/09/20 02:30:54;;;;;;;3.40;1.88;;;;;;;;;;6185019;23;20072;-68
2023/09/20 02:33:20;;;;;;;5.60;2.13;;;;;;;;;;6184886;23;20076;-67
2023/09/20 02:35:47;;;;;;;4.40;2.00;;;;;;;;;;6185299;23;20361;-68
2023/09/20 02:38:13;;;;;;;7.38;1.98;;;;;;;;;;6185322;23;20407;-67
2023/09/20 02:40:39;;;;;;;3.03;1.70;;;;;;;;;;6159013;23;20076;-67
2023/09/20 02:43:12;;;;;;;3.92;1.85;;;;;;;;;;6185231;23;20072;-67
2023/09/20 02:45:39;;;;;;;4.80;2.00;;;;;;;;;;6185293;23;20072;-67
2023/09/20 02:48:09;;;;;;;2.00;1.75;;;;;;;;;;6184714;23;20072;-68
2023/09/20 02:50:36;;;;;;;9.27;1.90;;;;;;;;;;6185395;23;20083;-68
2023/09/20 02:53:03;;;;;;;4.80;1.95;;;;;;;;;;6185364;23;20095;-67
2023/09/20 02:55:31;;;;;;;5.20;1.60;;;;;;;;;;6185079;23;20080;-67
2023/09/20 02:57:57;;;;;;;6.13;1.90;;;;;;;;;;6185185;23;20080;-67
2023/09/20 03:00:27;;;;;;;5.05;1.83;;;;;;;;;;6185162;23;20395;-67
2023/09/20 03:02:55;;;;;;;3.97;2.10;;;;;;;;;;6184849;23;20072;-67
2023/09/20 03:05:24;;;;;;;5.00;1.88;;;;;;;;;;6185021;23;20131;-67
2023/09/20 03:07:51;;;;;;;3.97;1.95;;;;;;;;;;6184744;23;20139;-68
2023/09/20 03:10:24;;;;;;;3.58;1.80;;;;;;;;;;6185198;23;20084;-67
2023/09/20 03:12:51;;;;;;;6.30;1.92;;;;;;;;;;6184895;23;20499;-67
2023/09/20 03:15:22;;;;;;;2.60;1.67;;;;;;;;;;6184913;23;20064;-67
2023/09/20 03:18:00;;;;;;;6.38;2.58;;;;;;;;;;6184551;23;20080;-67
2023/09/20 03:20:27;;;;;;;3.75;1.73;;;;;;;;;;6184944;23;20072;-68
2023/09/20 03:22:53;;;;;;;3.83;2.10;;;;;;;;;;6184863;23;20068;-67
2023/09/20 03:25:21;;;;;;;3.45;1.90;;;;;;;;;;6184646;23;20080;-66
2023/09/20 03:27:48;;;;;;;4.25;1.92;;;;;;;;;;6184827;23;20088;-68
2023/09/20 03:30:16;;;;;;;6.07;2.25;;;;;;;;;;6184835;23;20132;-67
2023/09/20 03:32:44;;;;;;;3.47;1.45;;;;;;;;;;6184525;23;20428;-67
2023/09/20 03:35:12;;;;;;;5.28;2.20;;;;;;;;;;6184740;23;20080;-67
2023/09/20 03:37:40;;;;;;;3.22;1.67;;;;;;;;;;6184866;23;20068;-67
2023/09/20 03:40:17;;;;;;;3.78;2.08;;;;;;;;;;6184755;23;20076;-67
2023/09/20 03:42:47;;;;;;;4.30;1.92;;;;;;;;;;6184884;23;20072;-67
2023/09/20 03:45:14;;;;;;;4.35;1.77;;;;;;;;;;6184976;23;20084;-67
2023/09/20 03:47:53;;;;;;;4.15;2.28;;;;;;;;;;6184250;23;20084;-68
2023/09/20 03:50:19;;;;;;;5.00;2.03;;;;;;;;;;6184819;23;20131;-67
2023/09/20 03:52:46;;;;;;;4.05;1.80;;;;;;;;;;6184538;23;20083;-67
2023/09/20 03:55:13;;;;;;;4.82;2.22;;;;;;;;;;6184629;23;20377;-67
2023/09/20 03:57:39;;;;;;;5.15;2.13;;;;;;;;;;6184474;23;20080;-67
2023/09/20 04:00:07;;;;;;;5.50;2.17;;;;;;;;;;6184298;23;20069;-67
2023/09/20 04:02:34;;;;;;;4.82;2.00;;;;;;;;;;6184694;23;20077;-67
2023/09/20 04:05:06;;;;;;;4.85;1.90;;;;;;;;;;6184612;23;20078;-68
2023/09/20 04:07:32;;;;;;;3.58;1.80;;;;;;;;;;6184721;23;20091;-67
2023/09/20 04:09:59;;;;;;;3.35;2.28;;;;;;;;;;6184547;23;20068;-67
2023/09/20 04:12:25;;;;;;;4.63;1.80;;;;;;;;;;6184639;23;20080;-67
2023/09/20 04:14:51;;;;;;;6.95;1.88;;;;;;;;;;6184139;23;20512;-67
2023/09/20 04:17:18;;;;;;;3.63;2.10;;;;;;;;;;6184459;23;20069;-67
2023/09/20 04:19:44;;;;;;;3.95;2.10;;;;;;;;;;6133924;23;20519;-67
2023/09/20 04:22:10;;;;;;;3.00;1.83;;;;;;;;;;6184472;23;20075;-67
2023/09/20 04:24:37;;;;;;;2.33;1.83;;;;;;;;;;6184472;23;20143;-67
2023/09/20 04:27:04;;;;;;;4.90;2.28;;;;;;;;;;6184489;23;20084;-67
2023/09/20 04:29:31;;;;;;;3.53;2.10;;;;;;;;;;6183980;23;20415;-67
2023/09/20 04:31:57;;;;;;;6.07;2.15;;;;;;;;;;6184439;23;20560;-67
2023/09/20 04:34:24;;;;;;;4.15;2.03;;;;;;;;;;6184538;23;20072;-67
2023/09/20 04:36:53;;;;;;;7.15;2.17;;;;;;;;;;6184437;23;20072;-68
2023/09/20 04:39:20;;;;;;;6.43;1.83;;;;;;;;;;6184553;23;20483;-67
2023/09/20 04:41:47;;;;;;;5.00;2.15;;;;;;;;;;6184348;23;20431;-67
2023/09/20 04:44:16;;;;;;;5.85;1.90;;;;;;;;;;6157796;23;20080;-67
2023/09/20 04:46:43;;;;;;;2.85;2.08;;;;;;;;;;6184366;23;20072;-67
2023/09/20 04:49:10;;;;;;;6.90;1.65;;;;;;;;;;6184413;23;20080;-68
2023/09/20 04:51:40;;;;;;;7.18;2.70;;;;;;;;;;6184480;23;20061;-67
2023/09/20 04:54:09;;;;;;;4.32;1.88;;;;;;;;;;6184804;23;20084;-67
2023/09/20 04:56:36;;;;;;;3.58;2.10;;;;;;;;;;6186342;23;20068;-67
2023/09/20 04:59:05;;;;;;;6.88;1.98;;;;;;;;;;6185928;23;20068;-67
2023/09/20 05:01:31;;;;;;;5.10;1.98;;;;;;;;;;6186344;23;20068;-67
2023/09/20 05:03:58;;;;;;;5.85;2.20;;;;;;;;;;6186046;23;20076;-67
2023/09/20 05:06:24;;;;;;;5.38;2.30;;;;;;;;;;6186214;23;20499;-67
2023/09/20 05:08:50;;;;;;;5.00;2.10;;;;;;;;;;6186412;23;20423;-67
2023/09/20 05:11:18;;;;;;;5.15;2.10;;;;;;;;;;6186269;23;20072;-67
2023/09/20 05:13:45;;;;;;;5.68;1.92;;;;;;;;;;6185789;23;20080;-67
2023/09/20 05:16:11;;;;;;;4.28;1.88;;;;;;;;;;6186045;23;20072;-67
2023/09/20 05:18:38;;;;;;;7.07;2.33;;;;;;;;;;6186221;23;20072;-68
2023/09/20 05:21:04;;;;;;;4.07;2.33;;;;;;;;;;6186376;23;20077;-68
2023/09/20 05:23:31;;;;;;;6.07;2.33;;;;;;;;;;6185829;23;20080;-67
2023/09/20 05:25:57;;;;;;;5.95;2.22;;;;;;;;;;6185933;23;20076;-67
2023/09/20 05:28:25;;;;;;;9.15;2.08;;;;;;;;;;6159178;23;20147;-68
2023/09/20 05:30:51;;;;;;;5.68;2.20;;;;;;;;;;6185926;23;20072;-67
2023/09/20 05:33:18;;;;;;;6.68;2.60;;;;;;;;;;6185982;23;20076;-67
2023/09/20 05:35:45;;;;;;;6.80;2.15;;;;;;;;;;6185923;23;20505;-67
2023/09/20 05:38:11;;;;;;;5.65;2.10;;;;;;;;;;6185980;23;20076;-68
2023/09/20 05:40:37;;;;;;;5.65;1.98;;;;;;;;;;6185802;23;20067;-67
2023/09/20 05:43:04;;;;;;;4.15;2.05;;;;;;;;;;6185841;23;20068;-67
2023/09/20 05:45:31;;;;;;;3.90;2.10;;;;;;;;;;6185987;23;20072;-67
2023/09/20 05:48:04;;;;;;;6.45;2.70;;;;;;;;;;6185652;23;20088;-67
2023/09/20 05:50:33;;;;;;;5.55;2.17;;;;;;;;;;6185851;23;20071;-67
2023/09/20 05:53:06;;;;;;;4.78;1.92;;;;;;;;;;6185779;23;20499;-67
2023/09/20 05:55:39;;;;;;;6.85;2.35;;;;;;;;;;6159351;23;20072;-67
2023/09/20 05:58:06;;;;;;;6.07;2.17;;;;;;;;;;6185359;23;20072;-67
2023/09/20 06:00:33;;;;;;;4.13;1.75;;;;;;;;;;6185708;23;20072;-67
2023/09/20 06:03:00;;;;;;;3.90;1.98;;;;;;;;;;6185647;23;20085;-67
2023/09/20 06:05:27;;;;;;;7.60;2.17;;;;;;;;;;6185142;23;20068;-68
2023/09/20 06:07:53;;;;;;;6.43;2.40;;;;;;;;;;6182647;23;20092;-67
2023/09/20 06:10:22;;;;;;;4.32;2.33;;;;;;;;;;6185385;23;20072;-67
2023/09/20 06:12:50;;;;;;;4.40;2.30;;;;;;;;;;6185052;23;20084;-67
2023/09/20 06:15:16;;;;;;;5.57;2.15;;;;;;;;;;6179093;23;20543;-66
2023/09/20 06:17:43;;;;;;;3.38;1.92;;;;;;;;;;6158523;23;20083;-67
2023/09/20 06:20:19;;;;;;;5.95;2.00;;;;;;;;;;6184745;23;20064;-67
2023/09/20 06:22:48;;;;;;;6.25;1.85;;;;;;;;;;6184520;23;20080;-68
2023/09/20 06:25:15;;;;;;;6.85;2.28;;;;;;;;;;6181555;23;20108;-67
2023/09/20 06:27:42;;;;;;;5.35;1.95;;;;;;;;;;6183734;23;20095;-67
2023/09/20 06:30:14;;;;;;;9.57;2.38;;;;;;;;;;6183882;23;20080;-68
2023/09/20 06:32:44;;;;;;;9.77;2.28;;;;;;;;;;6157885;23;20518;-67
2023/09/20 06:35:12;;;;;;;9.10;2.30;;;;;;;;;;6184753;23;20064;-68
2023/09/20 06:37:45;;;;;;;9.68;2.40;;;;;;;;;;6184614;23;20083;-67
2023/09/20 06:40:57;;;;;;;8.98;2.25;;;;;;;;;;6183401;23;20076;-68
2023/09/20 06:42:58;;;;;;;19.77;2.90;;;;;;;;;;6168785;23;20099;-67
2023/09/20 06:45:27;;;;;;;11.77;2.40;;;;;;;;;;6184390;23;20076;-68
2023/09/20 06:47:55;;;;;;;12.77;2.63;;;;;;;;;;6180185;23;20095;-67
2023/09/20 06:50:21;;;;;;;26.05;2.92;;;;;;;;;;6183137;23;20389;-68
2023/09/20 06:52:48;;;;;;;7.68;2.22;;;;;;;;;;6182947;23;20435;-67
2023/09/20 06:55:19;;;;;;;10.63;2.08;;;;;;;;;;6182773;23;20064;-68
2023/09/20 06:57:48;;;;;;;9.88;2.38;;;;;;;;;;6157981;23;20088;-67
2023/09/20 07:00:36;;;;;;;12.18;2.25;;;;;;;;;;6183588;23;20072;-68
2023/09/20 07:03:03;;;;;;;53.83;4.47;;;;;;;;;;6183451;23;20083;-67
2023/09/20 07:05:30;;;;;;;22.02;3.33;;;;;;;;;;6183434;23;20072;-67
2023/09/20 07:07:58;;;;;;;14.68;2.90;;;;;;;;;;6183320;23;20020;-67
2023/09/20 07:10:25;;;;;;;12.80;2.65;;;;;;;;;;6183050;23;20064;-67
2023/09/20 07:12:54;;;;;;;25.13;3.50;;;;;;;;;;6183813;23;20080;-67
2023/09/20 07:15:21;;;;;;;16.92;3.13;;;;;;;;;;6183597;23;20076;-67
2023/09/20 07:17:58;;;;;;;8.20;2.20;;;;;;;;;;6183026;23;20087;-67
2023/09/20 07:20:34;;;;;;;9.52;2.38;;;;;;;;;;6182724;23;20064;-67
2023/09/20 07:23:00;;;;;;;7.63;2.65;;;;;;;;;;6183368;23;20083;-67
2023/09/20 07:25:29;;;;;;;3.10;2.08;;;;;;;;;;6183525;23;20124;-67
2023/09/20 07:27:58;;;;;;;4.55;2.20;;;;;;;;;;6183118;23;20147;-67
2023/09/20 07:30:31;;;;;;;8.60;2.30;;;;;;;;;;6183979;23;20068;-67
2023/09/20 07:32:58;;;;;;;4.82;2.03;;;;;;;;;;6183727;23;20088;-67
2023/09/20 07:35:28;;;;;;;16.85;2.50;;;;;;;;;;6183469;23;20084;-67
2023/09/20 07:37:56;;;;;;;5.07;2.30;;;;;;;;;;6183511;23;20084;-67
2023/09/20 07:40:28;;;;;;;3.28;2.33;;;;;;;;;;6183870;23;20072;-67
2023/09/20 07:42:59;;;;;;;5.43;2.50;;;;;;;;;;6182514;23;20477;-67
2023/09/20 07:45:32;;;;;;;3.60;2.05;;;;;;;;;;6182497;23;20076;-67
2023/09/20 07:48:00;;;;;;;5.20;2.33;;;;;;;;;;6184004;23;20088;-67
2023/09/20 07:50:29;;;;;;;5.05;2.47;;;;;;;;;;6179977;23;20076;-67
2023/09/20 07:52:56;;;;;;;3.05;2.22;;;;;;;;;;6182700;23;20084;-67
2023/09/20 07:55:23;;;;;;;2.80;1.90;;;;;;;;;;6183088;23;20096;-67
2023/09/20 07:57:49;;;;;;;4.55;1.80;;;;;;;;;;6183312;23;20088;-68
2023/09/20 08:00:15;;;;;;;5.60;2.00;;;;;;;;;;6182936;23;20401;-67
2023/09/20 08:02:46;;;;;;;3.10;2.10;;;;;;;;;;6181863;23;20081;-67
2023/09/20 08:05:13;;;;;;;2.97;2.13;;;;;;;;;;6182309;23;20119;-67
2023/09/20 08:07:39;;;;;;;4.35;2.22;;;;;;;;;;6183086;23;20092;-68
2023/09/20 08:10:06;;;;;;;6.57;2.20;;;;;;;;;;6182540;23;20492;-68
2023/09/20 08:12:33;;;;;;;3.72;2.10;;;;;;;;;;6132823;23;20084;-68
2023/09/20 08:15:00;;;;;;;5.25;2.10;;;;;;;;;;6182839;23;20080;-67
2023/09/20 08:20:11;;;;;;;5.55;1.83;;;;;;;;;;6183065;23;20072;-68
2023/09/20 09:01:12;;;;;;;3.58;1.90;;;;;;;;;;6184518;23;20079;-66
2023/09/20 09:03:40;;;;;;;3.20;2.00;;;;;;;;;;6184841;23;20076;-66
2023/09/20 09:06:08;;;;;;;4.47;1.70;;;;;;;;;;6183995;23;20080;-66
2023/09/20 09:08:34;;;;;;;2.67;2.00;;;;;;;;;;6184917;23;20020;-67
2023/09/20 09:11:01;;;;;;;2.65;1.75;;;;;;;;;;6184695;23;20064;-69
2023/09/20 09:13:28;;;;;;;4.20;2.13;;;;;;;;;;6157686;23;20072;-69
2023/09/20 09:15:55;;;;;;;3.67;1.90;;;;;;;;;;6184947;23;20072;-71
2023/09/20 09:18:22;;;;;;;3.30;1.98;;;;;;;;;;6183406;23;20080;-68
2023/09/20 09:20:51;;;;;;;11.80;2.17;;;;;;;;;;6184453;23;20555;-68
2023/09/20 09:23:33;;;;;;;3.75;2.00;;;;;;;;;;6184395;23;20072;-67
2023/09/20 09:25:59;;;;;;;5.60;1.80;;;;;;;;;;6184282;23;20068;-68
2023/09/20 09:28:26;;;;;;;3.78;2.33;;;;;;;;;;6183416;23;20100;-68
2023/09/20 09:30:55;;;;;;;5.07;2.38;;;;;;;;;;6184976;23;20095;-68
2023/09/20 09:33:23;;;;;;;6.90;1.90;;;;;;;;;;6184276;23;20072;-66
2023/09/20 09:35:49;;;;;;;5.38;1.75;;;;;;;;;;6158123;23;20105;-68
2023/09/20 09:38:22;;;;;;;3.20;1.90;;;;;;;;;;6183712;23;20124;-68
2023/09/20 09:40:56;;;;;;;8.82;2.30;;;;;;;;;;6183879;23;20081;-69
2023/09/20 09:43:32;;;;;;;7.10;2.63;;;;;;;;;;6157945;23;20100;-69
2023/09/20 09:46:05;;;;;;;5.20;2.00;;;;;;;;;;6184560;23;20439;-69
2023/09/20 09:48:32;;;;;;;4.25;1.88;;;;;;;;;;6183771;23;20023;-68
2023/09/20 09:50:59;;;;;;;3.83;2.05;;;;;;;;;;6182492;23;20011;-66
2023/09/20 09:53:26;;;;;;;4.03;1.92;;;;;;;;;;6183427;23;20120;-68
2023/09/20 09:55:52;;;;;;;3.00;1.85;;;;;;;;;;6183550;23;20080;-66
2023/09/20 09:58:19;;;;;;;3.30;1.90;;;;;;;;;;6183562;23;20068;-68
2023/09/20 10:00:48;;;;;;;4.85;1.90;;;;;;;;;;6183165;23;20085;-69
2023/09/20 10:03:21;;;;;;;5.07;1.90;;;;;;;;;;6182754;23;20527;-66
2023/09/20 10:05:47;;;;;;;4.93;1.80;;;;;;;;;;6184244;23;20319;-66
2023/09/20 10:08:14;;;;;;;5.53;2.00;;;;;;;;;;6184130;23;20088;-66
2023/09/20 10:10:41;;;;;;;10.27;1.80;;;;;;;;;;6184581;23;20087;-66
2023/09/20 10:13:11;;;;;;;4.35;1.92;;;;;;;;;;6184252;23;20084;-66
2023/09/20 10:15:38;;;;;;;4.30;2.00;;;;;;;;;;6157993;23;20076;-66
2023/09/20 10:18:04;;;;;;;7.40;1.65;;;;;;;;;;6183945;23;20084;-67
2023/09/20 10:20:51;;;;;;;4.20;1.73;;;;;;;;;;6184636;23;20503;-66
2023/09/20 10:23:17;;;;;;;3.28;1.63;;;;;;;;;;6184532;23;20072;-66
2023/09/20 10:25:48;;;;;;;4.43;1.63;;;;;;;;;;6184590;23;20093;-66
2023/09/20 10:28:17;;;;;;;3.38;1.70;;;;;;;;;;6184186;23;20093;-67
2023/09/20 10:31:03;;;;;;;3.70;1.70;;;;;;;;;;6183732;23;20084;-66
2023/09/20 10:33:46;;;;;;;3.83;1.88;;;;;;;;;;6157906;23;20415;-66
2023/09/20 10:36:18;;;;;;;5.22;1.55;;;;;;;;;;6184784;23;20028;-66
2023/09/20 10:38:46;;;;;;;3.97;1.80;;;;;;;;;;6184268;23;20082;-66
2023/09/20 10:41:12;;;;;;;2.53;1.67;;;;;;;;;;6184486;23;20072;-66
2023/09/20 10:43:40;;;;;;;3.08;1.73;;;;;;;;;;6184513;23;20115;-66
2023/09/20 10:46:09;;;;;;;5.45;1.60;;;;;;;;;;6183947;23;20068;-66
2023/09/20 10:48:39;;;;;;;4.65;1.67;;;;;;;;;;6184182;23;20092;-67
2023/09/20 10:51:07;;;;;;;;;;;;;;;;;;6184911;23;20098;-66
2023/09/20 10:53:45;;;;;;;4.65;1.67;;;;;;;;;;6184076;23;19999;-67
2023/09/20 10:56:12;;;;;;;2.50;1.40;;;;;;;;;;6184294;23;20080;-66
2023/09/20 10:58:42;;;;;;;4.55;1.90;;;;;;;;;;6184206;23;20068;-66
2023/09/20 11:01:10;;;;;;;14.75;2.08;;;;;;;;;;6183851;23;20107;-66
2023/09/20 11:03:36;;;;;;;6.32;1.80;;;;;;;;;;6184319;23;20076;-67
2023/09/20 11:06:02;;;;;;;3.92;1.88;;;;;;;;;;6184243;23;20108;-66
2023/09/20 11:08:29;;;;;;;5.22;2.03;;;;;;;;;;6183992;23;20061;-66
2023/09/20 11:10:59;;;;;;;4.68;1.60;;;;;;;;;;6184254;23;20079;-67
2023/09/20 11:13:25;;;;;;;3.07;1.60;;;;;;;;;;6157892;23;20087;-66
2023/09/20 11:15:51;;;;;;;4.10;1.77;;;;;;;;;;6157389;23;20084;-66
2023/09/20 11:18:19;;;;;;;4.18;1.40;;;;;;;;;;6184352;23;20075;-66
2023/09/20 11:20:47;;;;;;;4.15;1.33;;;;;;;;;;6183989;23;20084;-66
2023/09/20 11:23:13;;;;;;;3.47;1.60;;;;;;;;;;6184089;23;20076;-66
2023/09/20 11:25:43;;;;;;;3.90;1.88;;;;;;;;;;6183904;23;20076;-66
2023/09/20 11:28:10;;;;;;;3.43;1.60;;;;;;;;;;6182814;23;20096;-69
2023/09/20 11:30:37;;;;;;;4.50;1.70;;;;;;;;;;6183638;23;20771;-66
2023/09/20 11:33:04;;;;;;;6.00;1.50;;;;;;;;;;6184082;23;20068;-66
2023/09/20 11:35:42;;;;;;;3.25;1.70;;;;;;;;;;6184000;23;20098;-66
2023/09/20 11:38:10;;;;;;;4.97;1.90;;;;;;;;;;6183872;23;20119;-66
2023/09/20 11:40:38;;;;;;;7.38;1.55;;;;;;;;;;6182771;23;20120;-66
2023/09/20 11:43:06;;;;;;;6.80;1.60;;;;;;;;;;6184011;23;20085;-66
2023/09/20 11:45:35;;;;;;;4.80;1.60;;;;;;;;;;6183615;23;20492;-66
2023/09/20 11:48:08;;;;;;;10.25;1.90;;;;;;;;;;6183758;23;20080;-66
2023/09/20 11:50:36;;;;;;;3.15;1.73;;;;;;;;;;6183569;23;20079;-66
2023/09/20 11:53:03;;;;;;;6.18;1.80;;;;;;;;;;6183887;23;20077;-66
2023/09/20 11:55:30;;;;;;;3.13;1.48;;;;;;;;;;6182777;23;20080;-66
2023/09/20 11:57:59;;;;;;;4.25;1.85;;;;;;;;;;6183781;23;20089;-67
2023/09/20 12:00:26;;;;;;;3.47;1.90;;;;;;;;;;6183383;23;20072;-66
2023/09/20 12:02:55;;;;;;;3.20;1.50;;;;;;;;;;6183461;23;20108;-66
2023/09/20 12:05:22;;;;;;;4.50;1.65;;;;;;;;;;6183505;23;20515;-68
2023/09/20 12:07:56;;;;;;;7.22;1.65;;;;;;;;;;6183566;23;20073;-69
2023/09/20 12:10:22;;;;;;;4.78;1.63;;;;;;;;;;6184028;23;20072;-66
2023/09/20 12:12:51;;;;;;;3.83;1.50;;;;;;;;;;6157250;23;20079;-69
2023/09/20 12:15:19;;;;;;;3.63;1.77;;;;;;;;;;6157672;23;20084;-69
2023/09/20 12:17:47;;;;;;;3.13;1.58;;;;;;;;;;6183745;23;20072;-68
2023/09/20 12:20:15;;;;;;;3.10;1.50;;;;;;;;;;6183857;23;20123;-68
2023/09/20 12:22:43;;;;;;;7.18;1.77;;;;;;;;;;6183576;23;20075;-69
2023/09/20 12:25:11;;;;;;;4.60;1.90;;;;;;;;;;6183387;23;20399;-69
2023/09/20 12:27:37;;;;;;;6.60;1.90;;;;;;;;;;6183153;23;20092;-68
2023/09/20 12:30:04;;;;;;;3.58;1.50;;;;;;;;;;6183737;23;20068;-69
2023/09/20 12:32:31;;;;;;;4.38;1.48;;;;;;;;;;6184041;23;20491;-69
2023/09/20 12:34:58;;;;;;;10.93;1.80;;;;;;;;;;6183863;23;20072;-69
2023/09/20 12:37:24;;;;;;;9.18;1.80;;;;;;;;;;6183827;23;20088;-69
2023/09/20 12:39:52;;;;;;;4.28;2.00;;;;;;;;;;6183989;23;20084;-69
2023/09/20 12:42:20;;;;;;;3.33;1.75;;;;;;;;;;6183406;23;20068;-68
2023/09/20 12:44:47;;;;;;;5.35;1.80;;;;;;;;;;6181476;23;20080;-69
2023/09/20 12:47:13;;;;;;;5.00;1.58;;;;;;;;;;6183564;23;20068;-68
2023/09/20 12:49:40;;;;;;;4.93;1.90;;;;;;;;;;6183588;23;20377;-68
2023/09/20 12:52:07;;;;;;;4.82;1.50;;;;;;;;;;6183563;23;20361;-68
2023/09/20 12:54:33;;;;;;;4.45;1.65;;;;;;;;;;6183398;23;20085;-68
2023/09/20 12:57:00;;;;;;;4.85;1.67;;;;;;;;;;6156916;23;20084;-68
2023/09/20 12:59:27;;;;;;;3.83;1.63;;;;;;;;;;6157611;23;20076;-68
2023/09/20 13:01:59;;;;;;;4.97;1.80;;;;;;;;;;6183401;23;20097;-68
2023/09/20 13:04:27;;;;;;;3.33;1.58;;;;;;;;;;6183540;23;20076;-68
2023/09/20 13:06:54;;;;;;;3.25;1.60;;;;;;;;;;6183220;23;20084;-68
2023/09/20 13:09:21;;;;;;;3.88;1.70;;;;;;;;;;6183114;23;20076;-68
2023/09/20 13:11:48;;;;;;;3.75;1.60;;;;;;;;;;6183046;23;20123;-68
2023/09/20 13:14:19;;;;;;;6.53;1.65;;;;;;;;;;6183365;23;20092;-68
2023/09/20 13:16:49;;;;;;;4.35;1.90;;;;;;;;;;6185111;23;20065;-68
2023/09/20 13:19:18;;;;;;;5.00;1.88;;;;;;;;;;6185092;23;20080;-68
2023/09/20 13:21:45;;;;;;;6.45;1.98;;;;;;;;;;6159138;23;20068;-68
2023/09/20 13:24:12;;;;;;;5.18;1.70;;;;;;;;;;6185164;23;20084;-68
2023/09/20 13:26:39;;;;;;;6.20;2.05;;;;;;;;;;6184772;23;20492;-68
2023/09/20 13:29:06;;;;;;;3.50;1.73;;;;;;;;;;6185284;23;20096;-68
2023/09/20 13:31:32;;;;;;;6.63;1.90;;;;;;;;;;6158708;23;20104;-68
2023/09/20 13:34:02;;;;;;;7.05;1.77;;;;;;;;;;6157474;23;20072;-68
2023/09/20 13:36:28;;;;;;;3.03;1.50;;;;;;;;;;6184735;23;20076;-68
2023/09/20 13:38:54;;;;;;;4.63;1.80;;;;;;;;;;6184540;23;20088;-68
2023/09/20 13:41:21;;;;;;;7.03;1.70;;;;;;;;;;6184466;23;20076;-68
2023/09/20 13:43:48;;;;;;;5.13;1.90;;;;;;;;;;6184814;23;20084;-68
2023/09/20 13:46:17;;;;;;;7.70;1.65;;;;;;;;;;6185141;23;20217;-68
2023/09/20 13:48:46;;;;;;;3.03;1.63;;;;;;;;;;6133863;23;20096;-67
2023/09/20 13:51:18;;;;;;;5.35;1.40;;;;;;;;;;6184676;23;20071;-68
2023/09/20 13:53:49;;;;;;;2.00;1.05;;;;;;;;;;6183906;23;20495;-67
2023/09/20 13:56:19;;;;;;;;;;;;;;;;;;6158803;23;20076;-67
2023/09/20 13:58:45;;;;;;;1.38;0.50;;;;;;;;;;6184968;23;19986;-67
2023/09/20 14:01:12;;;;;;;2.50;0.60;;;;;;;;;;6158566;23;20080;-68
2023/09/20 14:03:38;;;;;;;2.25;0.80;;;;;;;;;;6184821;23;20076;-68
2023/09/20 14:06:08;;;;;;;0.60;0.60;;;;;;;;;;6184930;23;20077;-68
2023/09/20 14:08:34;;;;;;;4.30;0.90;;;;;;;;;;6184887;23;20096;-68
2023/09/20 14:11:00;;;;;;;2.67;0.82;;;;;;;;;;6184219;23;20068;-68
2023/09/20 14:13:27;;;;;;;2.78;1.00;;;;;;;;;;6184575;23;20083;-68
2023/09/20 14:15:54;;;;;;;2.40;1.10;;;;;;;;;;6184347;23;20072;-68
2023/09/20 14:18:21;;;;;;;1.55;0.90;;;;;;;;;;6184861;23;20072;-67
2023/09/20 14:20:50;;;;;;;2.08;0.82;;;;;;;;;;6183892;23;20096;-68
2023/09/20 14:23:16;;;;;;;2.92;1.02;;;;;;;;;;6183932;23;20080;-68
2023/09/20 14:25:43;;;;;;;3.13;0.90;;;;;;;;;;6184351;23;20127;-68
2023/09/20 14:28:09;;;;;;;2.85;1.10;;;;;;;;;;6184133;23;20100;-68
2023/09/20 14:30:37;;;;;;;1.77;0.90;;;;;;;;;;6184708;23;20423;-68
2023/09/20 14:33:04;;;;;;;6.10;1.13;;;;;;;;;;6184921;23;20447;-68
2023/09/20 14:35:30;;;;;;;2.00;1.02;;;;;;;;;;6184831;23;20076;-68
2023/09/20 14:37:57;;;;;;;3.83;1.00;;;;;;;;;;6184253;23;20547;-68
2023/09/20 14:40:26;;;;;;;2.80;1.17;;;;;;;;;;6185158;23;20060;-68
2023/09/20 14:42:53;;;;;;;1.55;0.90;;;;;;;;;;6184593;23;20084;-68
2023/09/20 14:45:24;;;;;;;1.17;0.80;;;;;;;;;;6184865;23;20068;-68
2023/09/20 14:47:51;;;;;;;1.73;0.90;;;;;;;;;;6184659;23;20083;-67
2023/09/20 14:50:17;;;;;;;2.15;1.10;;;;;;;;;;6184473;23;20076;-68
2023/09/20 14:52:45;;;;;;;2.03;1.10;;;;;;;;;;6184375;23;20511;-68
2023/09/20 14:55:13;;;;;;;1.10;1.00;;;;;;;;;;6185154;23;20072;-68
2023/09/20 14:57:43;;;;;;;1.52;0.98;;;;;;;;;;6184907;23;20079;-68
2023/09/20 15:00:16;;;;;;;1.23;0.90;;;;;;;;;;6184731;23;20479;-68
2023/09/20 15:02:46;;;;;;;1.27;0.98;;;;;;;;;;6184768;23;20153;-68
2023/09/20 15:05:17;;;;;;;2.10;1.10;;;;;;;;;;6184802;23;20072;-68
2023/09/20 15:07:44;;;;;;;1.52;0.98;;;;;;;;;;6184490;23;20093;-68
2023/09/20 15:10:11;;;;;;;2.08;0.90;;;;;;;;;;6185044;23;20072;-68
2023/09/20 15:12:41;;;;;;;3.50;1.13;;;;;;;;;;6185119;23;20084;-68
2023/09/20 15:15:08;;;;;;;3.03;1.10;;;;;;;;;;6185504;23;20060;-68
2023/09/20 15:17:37;;;;;;;3.13;0.80;;;;;;;;;;6185324;23;20072;-67
2023/09/20 15:20:05;;;;;;;3.80;0.80;;;;;;;;;;6185370;23;20072;-68
2023/09/20 15:22:32;;;;;;;0.77;0.77;;;;;;;;;;6184488;23;20072;-68
2023/09/20 15:24:59;;;;;;;1.08;0.50;;;;;;;;;;6158726;23;20096;-68
2023/09/20 15:27:29;;;;;;;0.57;0.50;;;;;;;;;;6184828;23;20091;-68
2023/09/20 15:29:56;;;;;;;0.43;0.40;;;;;;;;;;6184962;23;20136;-68